sensor_id;sensor_type;location;lat;lon;timestamp;P1;durP1;ratioP1;P2;durP2;ratioP2
21539;SDS011;10931;52.164;5.518;2023-05-07T00:01:25;1.00;;;0.60;;
21539;SDS011;10931;52.164;5.518;2023-05-07T00:03:50;0.60;;;0.57;;
21539;SDS011;10931;52.164;5.518;2023-05-07T00:06:16;0.82;;;0.50;;
21539;SDS011;10931;52.164;5.518;2023-05-07T00:08:45;0.57;;;0.43;;
21539;SDS011;10931;52.164;5.518;2023-05-07T00:11:13;0.60;;;0.40;;
21539;SDS011;10931;52.164;5.518;2023-05-07T00:13:42;0.43;;;0.43;;
21539;SDS011;10931;52.164;5.518;2023-05-07T00:16:07;0.45;;;0.43;;
21539;SDS011;10931;52.164;5.518;2023-05-07T00:18:36;0.70;;;0.60;;
21539;SDS011;10931;52.164;5.518;2023-05-07T00:21:02;0.82;;;0.40;;
21539;SDS011;10931;52.164;5.518;2023-05-07T00:23:27;0.65;;;0.50;;
21539;SDS011;10931;52.164;5.518;2023-05-07T00:25:53;0.57;;;0.47;;
21539;SDS011;10931;52.164;5.518;2023-05-07T00:28:19;0.60;;;0.45;;
21539;SDS011;10931;52.164;5.518;2023-05-07T00:30:44;0.40;;;0.40;;
21539;SDS011;10931;52.164;5.518;2023-05-07T00:33:13;0.50;;;0.50;;
21539;SDS011;10931;52.164;5.518;2023-05-07T00:35:39;0.38;;;0.38;;
21539;SDS011;10931;52.164;5.518;2023-05-07T00:38:07;0.65;;;0.55;;
21539;SDS011;10931;52.164;5.518;2023-05-07T00:40:33;0.50;;;0.50;;
21539;SDS011;10931;52.164;5.518;2023-05-07T00:42:58;0.68;;;0.50;;
21539;SDS011;10931;52.164;5.518;2023-05-07T00:45:28;0.52;;;0.50;;
21539;SDS011;10931;52.164;5.518;2023-05-07T00:47:55;0.70;;;0.50;;
21539;SDS011;10931;52.164;5.518;2023-05-07T00:50:22;0.40;;;0.40;;
21539;SDS011;10931;52.164;5.518;2023-05-07T00:52:48;0.43;;;0.40;;
21539;SDS011;10931;52.164;5.518;2023-05-07T00:55:14;0.75;;;0.60;;
21539;SDS011;10931;52.164;5.518;2023-05-07T00:57:41;0.32;;;0.32;;
21539;SDS011;10931;52.164;5.518;2023-05-07T01:00:09;0.65;;;0.40;;
21539;SDS011;10931;52.164;5.518;2023-05-07T01:02:36;0.88;;;0.40;;
21539;SDS011;10931;52.164;5.518;2023-05-07T01:05:02;0.40;;;0.40;;
21539;SDS011;10931;52.164;5.518;2023-05-07T01:07:34;0.73;;;0.68;;
21539;SDS011;10931;52.164;5.518;2023-05-07T01:10:04;0.40;;;0.30;;
21539;SDS011;10931;52.164;5.518;2023-05-07T01:12:32;0.63;;;0.40;;
21539;SDS011;10931;52.164;5.518;2023-05-07T01:14:59;0.73;;;0.50;;
21539;SDS011;10931;52.164;5.518;2023-05-07T01:17:25;0.77;;;0.60;;
21539;SDS011;10931;52.164;5.518;2023-05-07T01:19:50;0.40;;;0.40;;
21539;SDS011;10931;52.164;5.518;2023-05-07T01:22:23;0.50;;;0.40;;
21539;SDS011;10931;52.164;5.518;2023-05-07T01:24:59;0.50;;;0.43;;
21539;SDS011;10931;52.164;5.518;2023-05-07T01:27:26;0.55;;;0.40;;
21539;SDS011;10931;52.164;5.518;2023-05-07T01:29:52;0.40;;;0.40;;
21539;SDS011;10931;52.164;5.518;2023-05-07T01:32:18;0.70;;;0.50;;
21539;SDS011;10931;52.164;5.518;2023-05-07T01:34:49;1.15;;;0.40;;
21539;SDS011;10931;52.164;5.518;2023-05-07T01:37:15;0.70;;;0.50;;
21539;SDS011;10931;52.164;5.518;2023-05-07T01:39:42;0.43;;;0.40;;
21539;SDS011;10931;52.164;5.518;2023-05-07T01:42:08;0.40;;;0.40;;
21539;SDS011;10931;52.164;5.518;2023-05-07T01:44:33;0.52;;;0.52;;
21539;SDS011;10931;52.164;5.518;2023-05-07T01:46:59;0.60;;;0.47;;
21539;SDS011;10931;52.164;5.518;2023-05-07T01:49:27;0.55;;;0.40;;
21539;SDS011;10931;52.164;5.518;2023-05-07T01:51:53;0.45;;;0.40;;
21539;SDS011;10931;52.164;5.518;2023-05-07T01:54:18;0.45;;;0.45;;
21539;SDS011;10931;52.164;5.518;2023-05-07T01:56:48;0.70;;;0.52;;
21539;SDS011;10931;52.164;5.518;2023-05-07T01:59:13;0.57;;;0.40;;
21539;SDS011;10931;52.164;5.518;2023-05-07T02:01:39;0.65;;;0.35;;
21539;SDS011;10931;52.164;5.518;2023-05-07T02:04:05;0.45;;;0.40;;
21539;SDS011;10931;52.164;5.518;2023-05-07T02:06:34;0.50;;;0.40;;
21539;SDS011;10931;52.164;5.518;2023-05-07T02:08:59;0.32;;;0.32;;
21539;SDS011;10931;52.164;5.518;2023-05-07T02:11:27;0.35;;;0.35;;
21539;SDS011;10931;52.164;5.518;2023-05-07T02:13:53;0.43;;;0.43;;
21539;SDS011;10931;52.164;5.518;2023-05-07T02:16:19;0.70;;;0.40;;
21539;SDS011;10931;52.164;5.518;2023-05-07T02:18:45;0.38;;;0.38;;
21539;SDS011;10931;52.164;5.518;2023-05-07T02:21:12;0.55;;;0.40;;
21539;SDS011;10931;52.164;5.518;2023-05-07T02:23:38;0.65;;;0.50;;
21539;SDS011;10931;52.164;5.518;2023-05-07T02:26:04;0.57;;;0.47;;
21539;SDS011;10931;52.164;5.518;2023-05-07T02:28:29;0.40;;;0.40;;
21539;SDS011;10931;52.164;5.518;2023-05-07T02:31:00;0.63;;;0.50;;
21539;SDS011;10931;52.164;5.518;2023-05-07T02:33:36;0.40;;;0.40;;
21539;SDS011;10931;52.164;5.518;2023-05-07T02:36:08;0.40;;;0.40;;
21539;SDS011;10931;52.164;5.518;2023-05-07T02:38:43;0.50;;;0.47;;
21539;SDS011;10931;52.164;5.518;2023-05-07T02:41:11;0.55;;;0.40;;
21539;SDS011;10931;52.164;5.518;2023-05-07T02:43:37;0.47;;;0.45;;
21539;SDS011;10931;52.164;5.518;2023-05-07T02:46:03;0.77;;;0.40;;
21539;SDS011;10931;52.164;5.518;2023-05-07T02:48:30;0.50;;;0.40;;
21539;SDS011;10931;52.164;5.518;2023-05-07T02:50:56;0.75;;;0.43;;
21539;SDS011;10931;52.164;5.518;2023-05-07T02:53:25;0.52;;;0.40;;
21539;SDS011;10931;52.164;5.518;2023-05-07T02:55:55;0.40;;;0.40;;
21539;SDS011;10931;52.164;5.518;2023-05-07T02:58:24;0.50;;;0.50;;
21539;SDS011;10931;52.164;5.518;2023-05-07T03:00:50;0.63;;;0.45;;
21539;SDS011;10931;52.164;5.518;2023-05-07T03:03:17;0.50;;;0.50;;
21539;SDS011;10931;52.164;5.518;2023-05-07T03:05:45;0.93;;;0.50;;
21539;SDS011;10931;52.164;5.518;2023-05-07T03:08:11;0.75;;;0.60;;
21539;SDS011;10931;52.164;5.518;2023-05-07T03:10:38;0.60;;;0.50;;
21539;SDS011;10931;52.164;5.518;2023-05-07T03:13:05;0.68;;;0.50;;
21539;SDS011;10931;52.164;5.518;2023-05-07T03:15:31;0.50;;;0.50;;
21539;SDS011;10931;52.164;5.518;2023-05-07T03:17:57;0.60;;;0.60;;
21539;SDS011;10931;52.164;5.518;2023-05-07T03:20:25;0.90;;;0.52;;
21539;SDS011;10931;52.164;5.518;2023-05-07T03:22:53;0.63;;;0.50;;
21539;SDS011;10931;52.164;5.518;2023-05-07T03:25:19;0.50;;;0.50;;
21539;SDS011;10931;52.164;5.518;2023-05-07T03:27:45;0.45;;;0.43;;
21539;SDS011;10931;52.164;5.518;2023-05-07T03:30:12;0.85;;;0.70;;
21539;SDS011;10931;52.164;5.518;2023-05-07T03:32:38;0.50;;;0.40;;
21539;SDS011;10931;52.164;5.518;2023-05-07T03:35:04;0.45;;;0.30;;
21539;SDS011;10931;52.164;5.518;2023-05-07T03:37:30;0.52;;;0.35;;
21539;SDS011;10931;52.164;5.518;2023-05-07T03:39:58;0.73;;;0.40;;
21539;SDS011;10931;52.164;5.518;2023-05-07T03:42:25;0.30;;;0.30;;
21539;SDS011;10931;52.164;5.518;2023-05-07T03:44:53;0.43;;;0.43;;
21539;SDS011;10931;52.164;5.518;2023-05-07T03:47:19;0.65;;;0.30;;
21539;SDS011;10931;52.164;5.518;2023-05-07T03:49:44;0.40;;;0.30;;
21539;SDS011;10931;52.164;5.518;2023-05-07T03:52:10;0.52;;;0.50;;
21539;SDS011;10931;52.164;5.518;2023-05-07T03:54:36;0.40;;;0.40;;
21539;SDS011;10931;52.164;5.518;2023-05-07T03:57:02;0.75;;;0.40;;
21539;SDS011;10931;52.164;5.518;2023-05-07T03:59:27;0.60;;;0.43;;
21539;SDS011;10931;52.164;5.518;2023-05-07T04:01:53;0.50;;;0.50;;
21539;SDS011;10931;52.164;5.518;2023-05-07T04:04:25;1.23;;;0.60;;
21539;SDS011;10931;52.164;5.518;2023-05-07T04:06:51;0.55;;;0.30;;
21539;SDS011;10931;52.164;5.518;2023-05-07T04:09:22;0.80;;;0.52;;
21539;SDS011;10931;52.164;5.518;2023-05-07T04:11:50;0.95;;;0.60;;
21539;SDS011;10931;52.164;5.518;2023-05-07T04:14:16;0.52;;;0.30;;
21539;SDS011;10931;52.164;5.518;2023-05-07T04:16:42;0.70;;;0.65;;
21539;SDS011;10931;52.164;5.518;2023-05-07T04:19:07;0.50;;;0.40;;
21539;SDS011;10931;52.164;5.518;2023-05-07T04:21:33;0.70;;;0.52;;
21539;SDS011;10931;52.164;5.518;2023-05-07T04:23:59;0.70;;;0.43;;
21539;SDS011;10931;52.164;5.518;2023-05-07T04:26:25;0.47;;;0.43;;
21539;SDS011;10931;52.164;5.518;2023-05-07T04:28:51;0.60;;;0.40;;
21539;SDS011;10931;52.164;5.518;2023-05-07T04:31:19;0.95;;;0.43;;
21539;SDS011;10931;52.164;5.518;2023-05-07T04:33:47;0.88;;;0.52;;
21539;SDS011;10931;52.164;5.518;2023-05-07T04:36:13;0.60;;;0.50;;
21539;SDS011;10931;52.164;5.518;2023-05-07T04:38:50;0.50;;;0.50;;
21539;SDS011;10931;52.164;5.518;2023-05-07T04:41:16;0.50;;;0.50;;
21539;SDS011;10931;52.164;5.518;2023-05-07T04:43:41;0.55;;;0.40;;
21539;SDS011;10931;52.164;5.518;2023-05-07T04:46:07;1.13;;;0.65;;
21539;SDS011;10931;52.164;5.518;2023-05-07T04:48:33;0.30;;;0.30;;
21539;SDS011;10931;52.164;5.518;2023-05-07T04:51:02;0.50;;;0.50;;
21539;SDS011;10931;52.164;5.518;2023-05-07T04:53:28;0.50;;;0.50;;
21539;SDS011;10931;52.164;5.518;2023-05-07T04:55:56;0.65;;;0.60;;
21539;SDS011;10931;52.164;5.518;2023-05-07T04:58:23;0.52;;;0.50;;
21539;SDS011;10931;52.164;5.518;2023-05-07T05:00:49;0.55;;;0.50;;
21539;SDS011;10931;52.164;5.518;2023-05-07T05:03:15;0.50;;;0.50;;
21539;SDS011;10931;52.164;5.518;2023-05-07T05:05:41;0.40;;;0.40;;
21539;SDS011;10931;52.164;5.518;2023-05-07T05:08:06;0.75;;;0.52;;
21539;SDS011;10931;52.164;5.518;2023-05-07T05:10:32;1.88;;;0.80;;
21539;SDS011;10931;52.164;5.518;2023-05-07T05:12:58;0.75;;;0.70;;
21539;SDS011;10931;52.164;5.518;2023-05-07T05:15:26;0.73;;;0.60;;
21539;SDS011;10931;52.164;5.518;2023-05-07T05:17:52;0.57;;;0.50;;
21539;SDS011;10931;52.164;5.518;2023-05-07T05:20:18;0.68;;;0.60;;
21539;SDS011;10931;52.164;5.518;2023-05-07T05:22:43;0.95;;;0.65;;
21539;SDS011;10931;52.164;5.518;2023-05-07T05:25:09;0.47;;;0.47;;
21539;SDS011;10931;52.164;5.518;2023-05-07T05:27:35;0.55;;;0.55;;
21539;SDS011;10931;52.164;5.518;2023-05-07T05:30:01;1.27;;;0.70;;
21539;SDS011;10931;52.164;5.518;2023-05-07T05:32:27;1.05;;;0.77;;
21539;SDS011;10931;52.164;5.518;2023-05-07T05:34:55;0.60;;;0.60;;
21539;SDS011;10931;52.164;5.518;2023-05-07T05:37:20;0.52;;;0.50;;
21539;SDS011;10931;52.164;5.518;2023-05-07T05:39:48;0.70;;;0.55;;
21539;SDS011;10931;52.164;5.518;2023-05-07T05:42:21;0.60;;;0.60;;
21539;SDS011;10931;52.164;5.518;2023-05-07T05:44:47;0.75;;;0.57;;
21539;SDS011;10931;52.164;5.518;2023-05-07T05:47:14;0.77;;;0.73;;
21539;SDS011;10931;52.164;5.518;2023-05-07T05:49:40;0.95;;;0.77;;
21539;SDS011;10931;52.164;5.518;2023-05-07T05:52:05;0.90;;;0.70;;
21539;SDS011;10931;52.164;5.518;2023-05-07T05:54:31;0.75;;;0.70;;
21539;SDS011;10931;52.164;5.518;2023-05-07T05:56:57;0.88;;;0.70;;
21539;SDS011;10931;52.164;5.518;2023-05-07T05:59:23;1.02;;;0.60;;
21539;SDS011;10931;52.164;5.518;2023-05-07T06:01:48;0.98;;;0.73;;
21539;SDS011;10931;52.164;5.518;2023-05-07T06:04:14;0.85;;;0.70;;
21539;SDS011;10931;52.164;5.518;2023-05-07T06:06:42;0.73;;;0.70;;
21539;SDS011;10931;52.164;5.518;2023-05-07T06:09:08;0.77;;;0.52;;
21539;SDS011;10931;52.164;5.518;2023-05-07T06:11:34;0.70;;;0.60;;
21539;SDS011;10931;52.164;5.518;2023-05-07T06:14:03;0.68;;;0.50;;
21539;SDS011;10931;52.164;5.518;2023-05-07T06:16:30;0.60;;;0.55;;
21539;SDS011;10931;52.164;5.518;2023-05-07T06:18:56;0.82;;;0.60;;
21539;SDS011;10931;52.164;5.518;2023-05-07T06:21:22;0.70;;;0.57;;
21539;SDS011;10931;52.164;5.518;2023-05-07T06:23:48;0.68;;;0.50;;
21539;SDS011;10931;52.164;5.518;2023-05-07T06:26:17;0.50;;;0.50;;
21539;SDS011;10931;52.164;5.518;2023-05-07T06:28:43;0.57;;;0.50;;
21539;SDS011;10931;52.164;5.518;2023-05-07T06:31:11;1.15;;;0.65;;
21539;SDS011;10931;52.164;5.518;2023-05-07T06:33:38;0.60;;;0.50;;
21539;SDS011;10931;52.164;5.518;2023-05-07T06:36:05;0.88;;;0.73;;
21539;SDS011;10931;52.164;5.518;2023-05-07T06:38:31;0.65;;;0.60;;
21539;SDS011;10931;52.164;5.518;2023-05-07T06:40:56;0.63;;;0.52;;
21539;SDS011;10931;52.164;5.518;2023-05-07T06:43:24;1.23;;;0.70;;
21539;SDS011;10931;52.164;5.518;2023-05-07T06:45:50;0.77;;;0.50;;
21539;SDS011;10931;52.164;5.518;2023-05-07T06:48:15;0.73;;;0.50;;
21539;SDS011;10931;52.164;5.518;2023-05-07T06:50:44;1.05;;;0.70;;
21539;SDS011;10931;52.164;5.518;2023-05-07T06:53:10;0.60;;;0.50;;
21539;SDS011;10931;52.164;5.518;2023-05-07T06:55:36;0.52;;;0.52;;
21539;SDS011;10931;52.164;5.518;2023-05-07T06:58:03;0.75;;;0.63;;
21539;SDS011;10931;52.164;5.518;2023-05-07T07:00:29;0.50;;;0.50;;
21539;SDS011;10931;52.164;5.518;2023-05-07T07:02:56;0.63;;;0.50;;
21539;SDS011;10931;52.164;5.518;2023-05-07T07:05:22;0.93;;;0.70;;
21539;SDS011;10931;52.164;5.518;2023-05-07T07:07:48;1.33;;;0.60;;
21539;SDS011;10931;52.164;5.518;2023-05-07T07:10:19;0.88;;;0.60;;
21539;SDS011;10931;52.164;5.518;2023-05-07T07:12:49;0.75;;;0.60;;
21539;SDS011;10931;52.164;5.518;2023-05-07T07:15:17;0.82;;;0.60;;
21539;SDS011;10931;52.164;5.518;2023-05-07T07:17:45;0.82;;;0.55;;
21539;SDS011;10931;52.164;5.518;2023-05-07T07:20:14;0.60;;;0.60;;
21539;SDS011;10931;52.164;5.518;2023-05-07T07:22:39;0.57;;;0.57;;
21539;SDS011;10931;52.164;5.518;2023-05-07T07:25:13;0.60;;;0.60;;
21539;SDS011;10931;52.164;5.518;2023-05-07T07:27:39;0.60;;;0.55;;
21539;SDS011;10931;52.164;5.518;2023-05-07T07:30:05;0.75;;;0.70;;
21539;SDS011;10931;52.164;5.518;2023-05-07T07:32:34;0.60;;;0.60;;
21539;SDS011;10931;52.164;5.518;2023-05-07T07:35:03;0.65;;;0.60;;
21539;SDS011;10931;52.164;5.518;2023-05-07T07:37:29;1.05;;;0.70;;
21539;SDS011;10931;52.164;5.518;2023-05-07T07:40:02;0.70;;;0.60;;
21539;SDS011;10931;52.164;5.518;2023-05-07T07:42:28;1.05;;;0.73;;
21539;SDS011;10931;52.164;5.518;2023-05-07T07:44:54;0.60;;;0.60;;
21539;SDS011;10931;52.164;5.518;2023-05-07T07:47:25;1.63;;;0.68;;
21539;SDS011;10931;52.164;5.518;2023-05-07T07:49:51;0.60;;;0.50;;
21539;SDS011;10931;52.164;5.518;2023-05-07T07:52:19;1.02;;;0.70;;
21539;SDS011;10931;52.164;5.518;2023-05-07T07:54:59;1.02;;;0.68;;
21539;SDS011;10931;52.164;5.518;2023-05-07T07:57:28;0.70;;;0.68;;
21539;SDS011;10931;52.164;5.518;2023-05-07T08:00:01;1.08;;;0.60;;
21539;SDS011;10931;52.164;5.518;2023-05-07T08:02:27;0.47;;;0.47;;
21539;SDS011;10931;52.164;5.518;2023-05-07T08:04:53;0.75;;;0.70;;
21539;SDS011;10931;52.164;5.518;2023-05-07T08:07:18;2.10;;;1.13;;
21539;SDS011;10931;52.164;5.518;2023-05-07T08:09:47;0.68;;;0.57;;
21539;SDS011;10931;52.164;5.518;2023-05-07T08:12:16;0.70;;;0.60;;
21539;SDS011;10931;52.164;5.518;2023-05-07T08:14:42;0.70;;;0.60;;
21539;SDS011;10931;52.164;5.518;2023-05-07T08:17:08;0.63;;;0.63;;
21539;SDS011;10931;52.164;5.518;2023-05-07T08:19:35;1.00;;;0.77;;
21539;SDS011;10931;52.164;5.518;2023-05-07T08:22:01;0.75;;;0.68;;
21539;SDS011;10931;52.164;5.518;2023-05-07T08:24:31;1.92;;;1.05;;
21539;SDS011;10931;52.164;5.518;2023-05-07T08:26:56;1.40;;;0.80;;
21539;SDS011;10931;52.164;5.518;2023-05-07T08:29:24;0.85;;;0.80;;
21539;SDS011;10931;52.164;5.518;2023-05-07T08:31:50;0.80;;;0.70;;
21539;SDS011;10931;52.164;5.518;2023-05-07T08:34:16;0.70;;;0.52;;
21539;SDS011;10931;52.164;5.518;2023-05-07T08:36:41;0.80;;;0.70;;
21539;SDS011;10931;52.164;5.518;2023-05-07T08:39:14;0.88;;;0.77;;
21539;SDS011;10931;52.164;5.518;2023-05-07T08:41:42;1.30;;;0.90;;
21539;SDS011;10931;52.164;5.518;2023-05-07T08:44:13;1.30;;;0.80;;
21539;SDS011;10931;52.164;5.518;2023-05-07T08:46:41;0.98;;;0.88;;
21539;SDS011;10931;52.164;5.518;2023-05-07T08:49:11;1.02;;;0.80;;
21539;SDS011;10931;52.164;5.518;2023-05-07T08:51:37;0.57;;;0.57;;
21539;SDS011;10931;52.164;5.518;2023-05-07T08:54:03;1.08;;;0.98;;
21539;SDS011;10931;52.164;5.518;2023-05-07T08:56:32;1.05;;;0.70;;
21539;SDS011;10931;52.164;5.518;2023-05-07T08:58:58;1.52;;;0.73;;
21539;SDS011;10931;52.164;5.518;2023-05-07T09:01:24;0.80;;;0.70;;
21539;SDS011;10931;52.164;5.518;2023-05-07T09:03:52;0.70;;;0.70;;
21539;SDS011;10931;52.164;5.518;2023-05-07T09:06:24;1.00;;;0.90;;
21539;SDS011;10931;52.164;5.518;2023-05-07T09:08:55;0.75;;;0.75;;
21539;SDS011;10931;52.164;5.518;2023-05-07T09:11:21;1.10;;;0.85;;
21539;SDS011;10931;52.164;5.518;2023-05-07T09:13:53;1.10;;;1.00;;
21539;SDS011;10931;52.164;5.518;2023-05-07T09:16:26;1.15;;;0.80;;
21539;SDS011;10931;52.164;5.518;2023-05-07T09:18:52;1.33;;;1.00;;
21539;SDS011;10931;52.164;5.518;2023-05-07T09:21:20;1.00;;;0.70;;
21539;SDS011;10931;52.164;5.518;2023-05-07T09:23:47;1.38;;;0.98;;
21539;SDS011;10931;52.164;5.518;2023-05-07T09:26:15;1.00;;;0.90;;
21539;SDS011;10931;52.164;5.518;2023-05-07T09:28:41;0.85;;;0.80;;
21539;SDS011;10931;52.164;5.518;2023-05-07T09:31:08;1.35;;;0.93;;
21539;SDS011;10931;52.164;5.518;2023-05-07T09:33:37;1.08;;;0.98;;
21539;SDS011;10931;52.164;5.518;2023-05-07T09:36:04;2.33;;;0.88;;
21539;SDS011;10931;52.164;5.518;2023-05-07T09:38:31;1.48;;;0.95;;
21539;SDS011;10931;52.164;5.518;2023-05-07T09:41:11;1.38;;;0.90;;
21539;SDS011;10931;52.164;5.518;2023-05-07T09:43:38;1.13;;;1.02;;
21539;SDS011;10931;52.164;5.518;2023-05-07T09:46:14;0.80;;;0.80;;
21539;SDS011;10931;52.164;5.518;2023-05-07T09:48:42;1.20;;;1.10;;
21539;SDS011;10931;52.164;5.518;2023-05-07T09:51:21;0.98;;;0.80;;
21539;SDS011;10931;52.164;5.518;2023-05-07T09:53:47;0.82;;;0.80;;
21539;SDS011;10931;52.164;5.518;2023-05-07T09:56:15;1.15;;;0.82;;
21539;SDS011;10931;52.164;5.518;2023-05-07T09:58:45;1.42;;;0.90;;
21539;SDS011;10931;52.164;5.518;2023-05-07T10:01:12;2.10;;;0.90;;
21539;SDS011;10931;52.164;5.518;2023-05-07T10:03:41;1.23;;;0.98;;
21539;SDS011;10931;52.164;5.518;2023-05-07T10:06:09;1.25;;;0.82;;
21539;SDS011;10931;52.164;5.518;2023-05-07T10:08:36;1.20;;;1.10;;
21539;SDS011;10931;52.164;5.518;2023-05-07T10:11:03;1.65;;;1.00;;
21539;SDS011;10931;52.164;5.518;2023-05-07T10:13:33;2.13;;;1.08;;
21539;SDS011;10931;52.164;5.518;2023-05-07T10:16:03;0.73;;;0.68;;
21539;SDS011;10931;52.164;5.518;2023-05-07T10:18:33;1.92;;;0.98;;
21539;SDS011;10931;52.164;5.518;2023-05-07T10:21:02;1.15;;;0.93;;
21539;SDS011;10931;52.164;5.518;2023-05-07T10:26:24;1.38;;;0.95;;
21539;SDS011;10931;52.164;5.518;2023-05-07T10:28:55;0.65;;;0.65;;
21539;SDS011;10931;52.164;5.518;2023-05-07T10:34:16;0.88;;;0.80;;
21539;SDS011;10931;52.164;5.518;2023-05-07T10:36:46;1.02;;;0.93;;
21539;SDS011;10931;52.164;5.518;2023-05-07T10:39:13;1.40;;;1.00;;
21539;SDS011;10931;52.164;5.518;2023-05-07T10:41:38;1.50;;;1.00;;
21539;SDS011;10931;52.164;5.518;2023-05-07T10:44:04;0.93;;;0.88;;
21539;SDS011;10931;52.164;5.518;2023-05-07T10:46:33;0.98;;;0.88;;
21539;SDS011;10931;52.164;5.518;2023-05-07T10:51:26;0.98;;;0.90;;
21539;SDS011;10931;52.164;5.518;2023-05-07T10:56:51;1.20;;;1.10;;
21539;SDS011;10931;52.164;5.518;2023-05-07T11:02:22;0.95;;;0.85;;
21539;SDS011;10931;52.164;5.518;2023-05-07T11:05:18;1.50;;;1.10;;
21539;SDS011;10931;52.164;5.518;2023-05-07T11:07:55;1.10;;;0.90;;
21539;SDS011;10931;52.164;5.518;2023-05-07T11:10:22;1.10;;;1.00;;
21539;SDS011;10931;52.164;5.518;2023-05-07T11:12:48;1.60;;;1.38;;
21539;SDS011;10931;52.164;5.518;2023-05-07T11:17:57;0.98;;;0.80;;
21539;SDS011;10931;52.164;5.518;2023-05-07T11:28:41;1.48;;;1.17;;
21539;SDS011;10931;52.164;5.518;2023-05-07T11:31:12;1.20;;;1.00;;
21539;SDS011;10931;52.164;5.518;2023-05-07T11:33:38;1.25;;;0.90;;
21539;SDS011;10931;52.164;5.518;2023-05-07T11:36:04;1.20;;;1.05;;
21539;SDS011;10931;52.164;5.518;2023-05-07T11:38:33;1.10;;;1.00;;
21539;SDS011;10931;52.164;5.518;2023-05-07T11:41:04;1.20;;;1.08;;
21539;SDS011;10931;52.164;5.518;2023-05-07T11:43:31;1.20;;;1.00;;
21539;SDS011;10931;52.164;5.518;2023-05-07T11:46:10;1.77;;;1.10;;
21539;SDS011;10931;52.164;5.518;2023-05-07T11:48:39;1.15;;;0.98;;
21539;SDS011;10931;52.164;5.518;2023-05-07T11:51:06;1.10;;;0.93;;
21539;SDS011;10931;52.164;5.518;2023-05-07T11:53:40;1.10;;;1.00;;
21539;SDS011;10931;52.164;5.518;2023-05-07T11:56:11;1.55;;;1.40;;
21539;SDS011;10931;52.164;5.518;2023-05-07T11:58:39;1.20;;;1.10;;
21539;SDS011;10931;52.164;5.518;2023-05-07T12:01:10;1.15;;;1.05;;
21539;SDS011;10931;52.164;5.518;2023-05-07T12:03:48;1.42;;;1.10;;
21539;SDS011;10931;52.164;5.518;2023-05-07T12:06:17;2.17;;;1.52;;
21539;SDS011;10931;52.164;5.518;2023-05-07T12:08:43;1.20;;;1.10;;
21539;SDS011;10931;52.164;5.518;2023-05-07T12:11:15;1.65;;;1.33;;
21539;SDS011;10931;52.164;5.518;2023-05-07T12:13:46;1.90;;;1.50;;
21539;SDS011;10931;52.164;5.518;2023-05-07T12:16:15;1.67;;;1.30;;
21539;SDS011;10931;52.164;5.518;2023-05-07T12:18:41;1.67;;;1.15;;
21539;SDS011;10931;52.164;5.518;2023-05-07T12:21:07;2.03;;;1.30;;
21539;SDS011;10931;52.164;5.518;2023-05-07T12:23:34;2.45;;;1.23;;
21539;SDS011;10931;52.164;5.518;2023-05-07T12:26:01;1.90;;;1.55;;
21539;SDS011;10931;52.164;5.518;2023-05-07T12:28:28;1.70;;;1.40;;
21539;SDS011;10931;52.164;5.518;2023-05-07T12:30:55;1.65;;;1.20;;
21539;SDS011;10931;52.164;5.518;2023-05-07T12:33:28;4.10;;;1.40;;
21539;SDS011;10931;52.164;5.518;2023-05-07T12:35:58;2.17;;;1.10;;
21539;SDS011;10931;52.164;5.518;2023-05-07T12:38:27;2.33;;;1.20;;
21539;SDS011;10931;52.164;5.518;2023-05-07T12:41:03;1.30;;;1.20;;
21539;SDS011;10931;52.164;5.518;2023-05-07T12:43:32;1.42;;;1.33;;
21539;SDS011;10931;52.164;5.518;2023-05-07T12:48:49;1.90;;;1.33;;
21539;SDS011;10931;52.164;5.518;2023-05-07T12:51:31;1.83;;;1.40;;
21539;SDS011;10931;52.164;5.518;2023-05-07T12:54:03;1.70;;;1.13;;
21539;SDS011;10931;52.164;5.518;2023-05-07T12:56:35;2.13;;;1.30;;
21539;SDS011;10931;52.164;5.518;2023-05-07T12:59:11;1.48;;;1.02;;
21539;SDS011;10931;52.164;5.518;2023-05-07T13:01:43;1.92;;;1.20;;
21539;SDS011;10931;52.164;5.518;2023-05-07T13:04:10;1.40;;;1.10;;
21539;SDS011;10931;52.164;5.518;2023-05-07T13:06:45;1.42;;;1.05;;
21539;SDS011;10931;52.164;5.518;2023-05-07T13:09:20;1.80;;;1.20;;
21539;SDS011;10931;52.164;5.518;2023-05-07T13:11:45;1.73;;;1.10;;
21539;SDS011;10931;52.164;5.518;2023-05-07T13:14:11;1.70;;;1.23;;
21539;SDS011;10931;52.164;5.518;2023-05-07T13:16:37;1.25;;;1.13;;
21539;SDS011;10931;52.164;5.518;2023-05-07T13:19:07;1.60;;;1.17;;
21539;SDS011;10931;52.164;5.518;2023-05-07T13:21:33;1.60;;;1.20;;
21539;SDS011;10931;52.164;5.518;2023-05-07T13:23:59;1.63;;;1.52;;
21539;SDS011;10931;52.164;5.518;2023-05-07T13:26:34;1.23;;;1.13;;
21539;SDS011;10931;52.164;5.518;2023-05-07T13:29:00;1.90;;;1.38;;
21539;SDS011;10931;52.164;5.518;2023-05-07T13:31:39;1.75;;;1.30;;
21539;SDS011;10931;52.164;5.518;2023-05-07T13:34:07;1.77;;;1.42;;
21539;SDS011;10931;52.164;5.518;2023-05-07T13:36:41;1.58;;;1.13;;
21539;SDS011;10931;52.164;5.518;2023-05-07T13:39:07;2.00;;;1.48;;
21539;SDS011;10931;52.164;5.518;2023-05-07T13:41:35;1.90;;;1.30;;
21539;SDS011;10931;52.164;5.518;2023-05-07T13:44:05;1.33;;;1.23;;
21539;SDS011;10931;52.164;5.518;2023-05-07T13:46:30;2.15;;;1.20;;
21539;SDS011;10931;52.164;5.518;2023-05-07T13:48:56;1.70;;;1.33;;
21539;SDS011;10931;52.164;5.518;2023-05-07T13:51:23;2.80;;;1.38;;
21539;SDS011;10931;52.164;5.518;2023-05-07T13:53:55;1.95;;;1.20;;
21539;SDS011;10931;52.164;5.518;2023-05-07T13:56:20;2.47;;;1.27;;
21539;SDS011;10931;52.164;5.518;2023-05-07T13:58:49;1.30;;;1.20;;
21539;SDS011;10931;52.164;5.518;2023-05-07T14:01:14;2.08;;;1.25;;
21539;SDS011;10931;52.164;5.518;2023-05-07T14:03:40;1.40;;;1.23;;
21539;SDS011;10931;52.164;5.518;2023-05-07T14:06:06;1.40;;;1.30;;
21539;SDS011;10931;52.164;5.518;2023-05-07T14:08:41;2.22;;;1.38;;
21539;SDS011;10931;52.164;5.518;2023-05-07T14:11:06;1.20;;;1.10;;
21539;SDS011;10931;52.164;5.518;2023-05-07T14:13:32;1.65;;;1.40;;
21539;SDS011;10931;52.164;5.518;2023-05-07T14:16:00;1.90;;;1.60;;
21539;SDS011;10931;52.164;5.518;2023-05-07T14:18:26;1.35;;;1.25;;
21539;SDS011;10931;52.164;5.518;2023-05-07T14:21:10;1.38;;;1.10;;
21539;SDS011;10931;52.164;5.518;2023-05-07T14:26:04;1.42;;;1.33;;
21539;SDS011;10931;52.164;5.518;2023-05-07T14:28:47;2.08;;;1.52;;
21539;SDS011;10931;52.164;5.518;2023-05-07T14:31:15;2.42;;;1.30;;
21539;SDS011;10931;52.164;5.518;2023-05-07T14:33:41;2.15;;;1.40;;
21539;SDS011;10931;52.164;5.518;2023-05-07T14:36:09;1.63;;;1.30;;
21539;SDS011;10931;52.164;5.518;2023-05-07T14:38:46;1.40;;;1.30;;
21539;SDS011;10931;52.164;5.518;2023-05-07T14:47:42;1.40;;;1.30;;
21539;SDS011;10931;52.164;5.518;2023-05-07T14:50:25;1.80;;;1.30;;
21539;SDS011;10931;52.164;5.518;2023-05-07T14:52:51;1.60;;;1.20;;
21539;SDS011;10931;52.164;5.518;2023-05-07T14:55:17;1.42;;;1.20;;
21539;SDS011;10931;52.164;5.518;2023-05-07T14:57:46;1.80;;;1.55;;
21539;SDS011;10931;52.164;5.518;2023-05-07T15:00:12;1.50;;;1.35;;
21539;SDS011;10931;52.164;5.518;2023-05-07T15:02:38;2.55;;;1.58;;
21539;SDS011;10931;52.164;5.518;2023-05-07T15:05:05;2.17;;;1.45;;
21539;SDS011;10931;52.164;5.518;2023-05-07T15:07:34;1.90;;;1.45;;
21539;SDS011;10931;52.164;5.518;2023-05-07T15:10:02;2.22;;;1.52;;
21539;SDS011;10931;52.164;5.518;2023-05-07T15:12:28;2.38;;;1.50;;
21539;SDS011;10931;52.164;5.518;2023-05-07T15:14:55;1.50;;;1.30;;
21539;SDS011;10931;52.164;5.518;2023-05-07T15:17:29;1.40;;;1.30;;
21539;SDS011;10931;52.164;5.518;2023-05-07T15:19:57;1.77;;;1.40;;
21539;SDS011;10931;52.164;5.518;2023-05-07T15:22:23;1.55;;;1.33;;
21539;SDS011;10931;52.164;5.518;2023-05-07T15:24:49;1.38;;;1.20;;
21539;SDS011;10931;52.164;5.518;2023-05-07T15:27:21;1.27;;;1.17;;
21539;SDS011;10931;52.164;5.518;2023-05-07T15:29:52;1.25;;;1.10;;